Flight Track Log - Related Links

Times and Time Zones

All times are in EDT time to prevent confusion due to time zone crossing. See the DAL3606 flight status page for this flight to view local times or setup timezone preferences in your user account.

Time Position Orientation Groundspeed Altitude Reporting Facility
EDT Latitude Longitude Course Direction KTS MPH feet Rate Location/Type
Mon 07:48:08 AM 33.6333 -84.4000 53° Northeast 176 203 1,600  Level Atlanta TRACON
Mon 07:49:02 AM 33.6333 -84.3333 90° East 226 260 2,600 1,800 Climbing Atlanta TRACON
Mon 07:50:00 AM 33.7339 -84.0046 54° Northeast  Level FlightAware Approximate
Mon 07:50:08 AM 33.6167 -84.2333 101° East 280 322 5,200  Level Atlanta TRACON
Mon 07:51:00 AM 33.8041 -83.8879 54° Northeast  Level FlightAware Approximate
Mon 07:51:08 AM 33.6000 -84.1500 103° East 292 336 7,700  Level Atlanta TRACON
Mon 07:51:31 AM 33.5897 -84.1111 108° East 304 350 8,500 1,952 Climbing Atlanta Center
Mon 07:52:00 AM 33.8752 -83.7720 48° Northeast  Level FlightAware Approximate
Mon 07:52:31 AM 33.6231 -84.0314 63° Northeast 313 360 10,400  Level Atlanta Center
Mon 07:53:00 AM 33.9515 -83.6609 53° Northeast  Level FlightAware Approximate
Mon 07:53:31 AM 33.6961 -83.9564 40° Northeast 315 362 12,100  Level Atlanta Center
Mon 07:54:31 AM 33.7753 -83.8764 40° Northeast 347 399 14,300 2,150 Climbing Atlanta Center
Mon 07:55:31 AM 33.8544 -83.7936 41° Northeast 366 421 16,400 1,950 Climbing Atlanta Center
Mon 07:56:31 AM 33.9336 -83.7083 42° Northeast 371 427 18,200 1,650 Climbing Atlanta Center
Mon 07:57:31 AM 34.0022 -83.6028 52° Northeast 385 443 19,700 1,250 Climbing Atlanta Center
Mon 07:58:31 AM 34.0747 -83.4869 53° Northeast 415 478 20,700 1,000 Climbing Atlanta Center
Mon 07:59:31 AM 34.1494 -83.3711 52° Northeast 436 502 21,700 1,100 Climbing Atlanta Center
Mon 08:00:31 AM 34.2258 -83.2475 53° Northeast 452 520 22,900 1,250 Climbing Atlanta Center
Mon 08:01:31 AM 34.3103 -83.1058 54° Northeast 457 526 24,200 1,250 Climbing Atlanta Center
Mon 08:02:31 AM 34.3928 -82.9789 52° Northeast 469 540 25,400 1,200 Climbing Atlanta Center
Mon 08:03:31 AM 34.4731 -82.8494 53° Northeast 475 547 26,600 1,350 Climbing Atlanta Center
Mon 08:04:31 AM 34.5553 -82.7222 52° Northeast 481 554 28,100 1,450 Climbing Atlanta Center
Mon 08:05:31 AM 34.6331 -82.5897 54° Northeast 481 554 29,500 1,250 Climbing Atlanta Center
Mon 08:06:31 AM 34.7086 -82.4594 55° Northeast 470 541 30,600 750 Climbing Atlanta Center
Mon 08:07:31 AM 34.7883 -82.3317 53° Northeast 477 549 31,000 200 Climbing Atlanta Center
Mon 08:08:31 AM 34.8739 -82.1906 54° Northeast 489 563 31,000 50 Level Atlanta Center
Mon 08:09:31 AM 34.9533 -82.0722 51° Northeast 501 577 31,100 600 Climbing Atlanta Center
Mon 08:10:31 AM 35.0344 -81.9283 55° Northeast 509 586 32,200 950 Climbing Atlanta Center
Mon 08:11:31 AM 35.1133 -81.7789 57° Northeast 514 592 33,000 400 Climbing Atlanta Center
Mon 08:12:31 AM 35.2019 -81.6114 57° Northeast 519 597 33,000  Level Atlanta Center
Mon 08:13:31 AM 35.2822 -81.4564 58° Northeast 533 613 33,000  Level Atlanta Center
Mon 08:14:31 AM 35.3664 -81.2983 57° Northeast 544 626 33,000  Level Atlanta Center
Mon 08:15:31 AM 35.4483 -81.1375 58° Northeast 554 638 33,000  Level Atlanta Center
Mon 08:16:31 AM 35.5239 -80.9919 57° Northeast 554 638 33,000  Level Atlanta Center
Mon 08:17:31 AM 35.6056 -80.8383 57° Northeast 554 638 33,000  Level Atlanta Center
Mon 08:18:31 AM 35.6928 -80.6686 58° Northeast 543 625 33,000  Level Atlanta Center
Mon 08:19:31 AM 35.7739 -80.5092 58° Northeast 543 625 33,000  Level Atlanta Center
Mon 08:21:30 AM 35.9294 -80.2017 58° Northeast 524 603 33,000  Level Washington Center
Mon 08:22:30 AM 36.0081 -80.0547 56° Northeast 524 603 33,000  Level Washington Center
Mon 08:23:28 AM 36.0908 -79.9025 56° Northeast 524 603 33,000  Level Washington Center
Mon 08:24:29 AM 36.1758 -79.7478 56° Northeast 530 610 33,000  Level Washington Center
Mon 08:25:30 AM 36.2511 -79.6153 55° Northeast 530 610 33,000 -202 Level Washington Center
Mon 08:26:28 AM 36.3375 -79.4650 54° Northeast 501 577 32,600 -508 Descending Washington Center
Mon 08:27:28 AM 36.4128 -79.3267 56° Northeast 495 570 32,000 -793 Descending Washington Center
Mon 08:28:29 AM 36.4922 -79.1858 55° Northeast 490 564 31,000 -1,475 Descending Washington Center
Mon 08:29:30 AM 36.5714 -79.0525 53° Northeast 485 558 29,000 -2,034 Descending Washington Center
Mon 08:30:27 AM 36.6483 -78.9083 56° Northeast 485 558 27,000 -1,966 Descending Washington Center
Mon 08:31:29 AM 36.7144 -78.7867 56° Northeast 485 558 25,100 -984 Descending Washington Center
Mon 08:32:29 AM 36.7844 -78.6547 56° Northeast 467 537 25,000 -50 Descending Washington Center
Mon 08:33:30 AM 36.8633 -78.5125 55° Northeast 456 525 25,000  Level Washington Center
Mon 08:34:28 AM 36.9286 -78.3953 55° Northeast 456 525 25,000  Level Washington Center
Mon 08:35:28 AM 37.0050 -78.2525 56° Northeast 462 532 25,000  Level Washington Center
Mon 08:36:28 AM 37.0944 -78.1619 39° Northeast 410 472 25,000 -246 Level Washington Center
Mon 08:37:30 AM 37.1919 -78.0894 31° Northeast 405 466 24,500 -492 Descending Washington Center
Mon 08:38:30 AM 37.2981 -78.0069 32° Northeast 412 474 24,000 -508 Descending Washington Center
Mon 08:39:28 AM 37.4103 -77.9214 31° Northeast 446 513 23,500 -508 Descending Washington Center
Mon 08:40:28 AM 37.5244 -77.8333 31° Northeast 469 540 23,000 -744 Descending Washington Center
Mon 08:41:29 AM 37.6425 -77.7633 25° Northeast 474 545 22,000 -1,041 Descending Washington Center
Mon 08:42:29 AM 37.7544 -77.6956 26° Northeast 454 522 20,900 -2,100 Descending Washington Center
Mon 08:43:29 AM 37.8661 -77.6331 24° Northeast 441 507 17,800 -2,975 Descending Washington Center
Mon 08:44:30 AM 37.9692 -77.5700 26° Northeast 425 489 14,900 -2,727 Descending Washington Center
Mon 08:45:30 AM 38.0744 -77.5147 22° Northeast 412 474 12,300 -2,390 Descending Washington Center
Mon 08:46:28 AM 38.1692 -77.4564 26° Northeast 400 460 10,200 -1,160 Descending Washington Center
Mon 08:47:29 AM 38.2511 -77.4081 25° Northeast 351 404 10,000 -403 Descending Washington Center
Mon 08:48:27 AM 38.3228 -77.3650 25° Northeast 311 358 9,400 -958 Descending Washington Center
Mon 08:49:28 AM 38.4022 -77.3589 North 283 326 8,100 -1,289 Descending Washington Center
Mon 08:50:28 AM 38.4814 -77.3633 357° North 278 320 6,800 -1,289 Descending Washington Center
Mon 08:51:29 AM 38.5606 -77.3653 359° North 273 314 5,500 -1,140 Descending Washington Center
Mon 08:52:29 AM 38.6397 -77.3644 360° North 273 314 4,500 -1,024 Descending Washington Center
Mon 08:52:51 AM 38.6667 -77.3667 356° North 278 320 4,100 -395 Descending Potomac TRACON
Mon 08:53:45 AM 38.7333 -77.3500 11° North 276 318 4,000 -53 Descending Potomac TRACON
Mon 08:54:45 AM 38.8167 -77.3500 360° North 280 322 4,000  Level Potomac TRACON
Mon 08:55:45 AM 38.9000 -77.3500 360° North 279 321 4,000 50 Level Potomac TRACON
Mon 08:56:45 AM 38.9833 -77.3500 360° North 280 322 4,100 -316 Climbing Potomac TRACON
Mon 08:57:39 AM 39.0500 -77.3500 360° North 274 315 3,400 -611 Descending Potomac TRACON
Mon 08:58:33 AM 39.1167 -77.3500 360° North 255 293 3,000 -211 Descending Potomac TRACON
Mon 08:59:33 AM 39.1333 -77.4167 288° West 224 258 3,000  Level Potomac TRACON

Login

Don't have an account? Register now (free) for customized features, flight alerts, and more!